createdAt,value
2019-02-15T00:03:11.945Z,62.77
2019-02-15T00:05:39.334Z,62.63
2019-02-15T00:08:06.792Z,62.92
2019-02-15T00:10:34.193Z,63.33
2019-02-15T00:13:01.597Z,64.15
2019-02-15T00:15:29.601Z,64.21
2019-02-15T00:20:49.161Z,64.34
2019-02-15T00:23:16.573Z,64.38
2019-02-15T00:25:44.032Z,64.52
2019-02-15T00:28:11.639Z,64.91
2019-02-15T00:30:39.030Z,65.12
2019-02-15T00:33:06.443Z,65.13
2019-02-15T00:35:33.858Z,65.16
2019-02-15T00:38:01.260Z,65.02
2019-02-15T00:40:28.672Z,65.10
2019-02-15T00:42:56.235Z,65.52
2019-02-15T00:45:23.663Z,65.47
2019-02-15T00:47:55.029Z,65.63
2019-02-15T00:50:37.299Z,65.58
2019-02-15T00:53:22.399Z,65.50
2019-02-15T00:55:49.803Z,65.65
2019-02-15T00:58:17.194Z,65.50
2019-02-15T01:00:55.166Z,65.47
2019-02-15T01:03:23.620Z,65.37
2019-02-15T01:05:56.673Z,65.44
2019-02-15T01:08:29.636Z,65.64
2019-02-15T01:10:57.075Z,65.66
2019-02-15T01:13:31.008Z,65.58
2019-02-15T01:15:51.959Z,65.80
2019-02-15T01:18:19.353Z,65.95
2019-02-15T01:20:46.751Z,65.92
2019-02-15T01:23:14.195Z,65.82
2019-02-15T01:25:41.602Z,65.95
2019-02-15T01:28:10.820Z,66.15
2019-02-15T01:30:46.852Z,66.36
2019-02-15T01:33:14.654Z,66.42
2019-02-15T01:35:42.413Z,66.60
2019-02-15T01:38:13.201Z,67.17
2019-02-15T01:40:43.327Z,67.72
2019-02-15T01:43:11.603Z,67.91
2019-02-15T01:45:39.534Z,68.03
2019-02-15T01:48:07.095Z,68.08
2019-02-15T01:50:34.495Z,68.14
2019-02-15T01:53:01.873Z,68.17
2019-02-15T01:55:30.058Z,68.22
2019-02-15T01:57:57.503Z,68.17
2019-02-15T02:00:24.908Z,68.20
2019-02-15T02:02:52.512Z,68.04
2019-02-15T02:05:19.899Z,67.69
2019-02-15T02:07:47.301Z,67.27
2019-02-15T02:10:14.700Z,67.02
2019-02-15T02:12:42.112Z,66.94
2019-02-15T02:15:09.522Z,67.24
2019-02-15T02:17:36.947Z,67.50
2019-02-15T02:20:04.371Z,67.62
2019-02-15T02:22:31.756Z,67.70
2019-02-15T02:24:59.189Z,67.52
2019-02-15T02:27:26.574Z,67.58
2019-02-15T02:29:53.975Z,67.93
2019-02-15T02:32:21.370Z,68.22
2019-02-15T02:34:48.763Z,68.36
2019-02-15T02:37:16.169Z,68.46
2019-02-15T02:39:43.598Z,68.48
2019-02-15T02:42:11.198Z,68.66
2019-02-15T02:44:38.614Z,68.70
2019-02-15T02:47:06.038Z,68.84
2019-02-15T02:49:33.442Z,68.94
2019-02-15T02:52:00.839Z,68.84
2019-02-15T02:54:28.263Z,68.73
2019-02-15T02:56:55.659Z,68.89
2019-02-15T02:59:23.064Z,68.98
2019-02-15T03:01:50.468Z,68.98
2019-02-15T03:04:17.889Z,68.65
2019-02-15T03:06:45.288Z,68.72
2019-02-15T03:09:12.679Z,68.66
2019-02-15T03:11:40.088Z,68.53
2019-02-15T03:14:11.455Z,68.77
2019-02-15T03:16:34.995Z,68.96
2019-02-15T03:19:02.412Z,68.75
2019-02-15T03:21:29.801Z,68.67
2019-02-15T03:23:57.213Z,68.46
2019-02-15T03:26:24.600Z,68.23
2019-02-15T03:28:51.995Z,67.97
2019-02-15T03:31:19.394Z,67.98
2019-02-15T03:33:46.804Z,68.01
2019-02-15T03:39:16.260Z,67.30
2019-02-15T03:41:43.743Z,67.31
2019-02-15T03:44:21.353Z,67.64
2019-02-15T03:46:38.756Z,67.86
2019-02-15T03:49:06.161Z,68.08
2019-02-15T03:51:33.595Z,68.48
2019-02-15T03:54:00.993Z,68.85
2019-02-15T03:56:28.402Z,69.21
2019-02-15T03:58:56.470Z,69.32
2019-02-15T04:01:23.870Z,69.29
2019-02-15T04:03:51.275Z,69.30
2019-02-15T04:06:18.666Z,69.29
2019-02-15T04:08:46.131Z,69.26
2019-02-15T04:11:13.544Z,69.41
2019-02-15T04:13:41.121Z,69.47
2019-02-15T04:16:08.530Z,69.56
2019-02-15T04:18:36.016Z,69.53
2019-02-15T04:21:03.486Z,69.55
2019-02-15T04:23:30.879Z,69.56
2019-02-15T04:25:58.283Z,69.47
2019-02-15T04:28:25.695Z,69.35
2019-02-15T04:30:53.127Z,69.31
2019-02-15T04:33:20.550Z,69.21
2019-02-15T04:35:48.027Z,69.30
2019-02-15T04:38:15.465Z,69.17
2019-02-15T04:40:42.872Z,69.19
2019-02-15T04:43:10.267Z,69.27
2019-02-15T04:45:37.715Z,69.20
2019-02-15T04:48:05.129Z,69.28
2019-02-15T04:50:32.529Z,69.45
2019-02-15T04:53:02.941Z,69.57
2019-02-15T04:55:27.443Z,69.53
2019-02-15T04:57:54.843Z,69.60
2019-02-15T05:00:22.275Z,69.57
2019-02-15T05:02:49.672Z,69.58
2019-02-15T05:05:17.071Z,69.47
2019-02-15T05:07:44.465Z,69.66
2019-02-15T05:10:11.924Z,69.72
2019-02-15T05:12:39.313Z,69.71
2019-02-15T05:15:06.707Z,69.64
2019-02-15T05:17:34.105Z,69.63
2019-02-15T05:20:01.887Z,69.55
2019-02-15T05:22:29.307Z,69.72
2019-02-15T05:24:56.744Z,69.91
2019-02-15T05:27:24.820Z,69.99
2019-02-15T05:29:52.305Z,70.20
2019-02-15T05:32:19.909Z,70.29
2019-02-15T05:34:47.303Z,70.21
2019-02-15T05:37:15.611Z,70.28
2019-02-15T05:39:43.016Z,70.16
2019-02-15T05:42:10.403Z,70.46
2019-02-15T05:44:37.853Z,70.54
2019-02-15T05:47:05.311Z,70.76
2019-02-15T05:49:32.714Z,70.92
2019-02-15T05:52:00.153Z,70.90
2019-02-15T05:54:27.611Z,70.93
2019-02-15T05:56:55.007Z,70.85
2019-02-15T05:59:22.402Z,70.80
2019-02-15T06:01:49.836Z,70.87
2019-02-15T06:04:17.224Z,70.81
2019-02-15T06:06:44.742Z,70.71
2019-02-15T06:09:12.192Z,70.35
2019-02-15T06:11:39.599Z,69.75
2019-02-15T06:14:07.121Z,69.62
2019-02-15T06:16:34.524Z,69.30
2019-02-15T06:19:01.992Z,69.13
2019-02-15T06:21:29.427Z,69.82
2019-02-15T06:23:57.065Z,70.08
2019-02-15T06:26:24.449Z,69.16
2019-02-15T06:28:51.887Z,68.80
2019-02-15T06:31:19.303Z,69.37
2019-02-15T06:33:46.722Z,69.41
2019-02-15T06:36:14.173Z,69.74
2019-02-15T06:38:41.578Z,69.99
2019-02-15T06:41:09.063Z,70.31
2019-02-15T06:43:36.489Z,70.38
2019-02-15T06:46:05.106Z,69.44
2019-02-15T06:48:32.643Z,69.39
2019-02-15T06:51:00.030Z,69.50
2019-02-15T06:53:27.435Z,69.68
2019-02-15T06:55:56.379Z,70.11
2019-02-15T06:58:23.790Z,69.99
2019-02-15T07:03:43.983Z,68.46
2019-02-15T07:06:12.291Z,67.75
2019-02-15T07:08:39.704Z,66.42
2019-02-15T07:11:07.105Z,66.04
2019-02-15T07:13:34.501Z,65.77
2019-02-15T07:16:01.941Z,65.59
2019-02-15T07:18:29.345Z,65.02
2019-02-15T07:20:56.743Z,64.23
2019-02-15T07:23:24.744Z,62.93
2019-02-15T07:25:52.144Z,61.73
2019-02-15T07:28:19.623Z,61.01
2019-02-15T07:30:47.005Z,60.98
2019-02-15T07:33:14.447Z,60.50
2019-02-15T07:35:41.852Z,59.77
2019-02-15T07:38:12.344Z,59.14
2019-02-15T07:40:39.903Z,58.62
2019-02-15T07:43:07.315Z,57.24
2019-02-15T07:45:42.628Z,55.43
2019-02-15T07:48:02.884Z,53.85
2019-02-15T07:50:30.310Z,52.67
2019-02-15T07:52:57.800Z,51.47
2019-02-15T07:55:25.325Z,50.21
2019-02-15T07:57:52.825Z,49.37
2019-02-15T08:00:21.136Z,48.27
2019-02-15T08:02:48.548Z,47.64
2019-02-15T08:05:15.999Z,47.16
2019-02-15T08:07:43.395Z,47.21
2019-02-15T08:10:10.812Z,47.64
2019-02-15T08:12:38.275Z,47.50
2019-02-15T08:15:05.685Z,47.15
2019-02-15T08:17:33.092Z,46.20
2019-02-15T08:20:00.560Z,45.34
2019-02-15T08:22:27.992Z,44.45
2019-02-15T08:24:55.993Z,43.55
2019-02-15T08:27:23.421Z,43.32
2019-02-15T08:29:50.816Z,43.96
2019-02-15T08:32:18.240Z,43.46
2019-02-15T08:34:45.643Z,42.56
2019-02-15T08:37:13.914Z,41.50
2019-02-15T08:39:40.645Z,40.59
2019-02-15T08:42:08.083Z,40.49
2019-02-15T08:44:35.527Z,40.38
2019-02-15T08:47:02.986Z,41.13
2019-02-15T08:49:30.644Z,42.47
2019-02-15T08:51:58.032Z,44.04
2019-02-15T08:54:25.470Z,44.91
2019-02-15T08:56:52.875Z,43.70
2019-02-15T08:59:20.319Z,42.38
2019-02-15T09:01:47.739Z,41.23
2019-02-15T09:04:15.197Z,39.93
2019-02-15T09:06:42.636Z,39.51
2019-02-15T09:09:10.897Z,39.69
2019-02-15T09:11:38.299Z,39.34
2019-02-15T09:14:05.731Z,39.16
2019-02-15T09:16:33.290Z,38.49
2019-02-15T09:19:00.682Z,37.60
2019-02-15T09:21:28.097Z,36.69
2019-02-15T09:23:55.491Z,36.02
2019-02-15T09:26:22.920Z,36.31
2019-02-15T09:28:50.326Z,36.39
2019-02-15T09:31:17.730Z,36.32
2019-02-15T09:33:45.164Z,35.77
2019-02-15T09:36:12.589Z,35.13
2019-02-15T09:38:40.007Z,34.99
2019-02-15T09:41:07.415Z,35.54
2019-02-15T09:43:34.831Z,35.54
2019-02-15T09:46:02.276Z,36.12
2019-02-15T09:48:30.254Z,36.56
2019-02-15T09:50:58.746Z,36.42
2019-02-15T09:53:26.164Z,36.12
2019-02-15T09:55:53.570Z,35.25
2019-02-15T09:58:21.014Z,34.50
2019-02-15T10:00:48.555Z,33.88
2019-02-15T10:03:15.899Z,33.60
2019-02-15T10:05:43.296Z,33.22
2019-02-15T10:08:10.822Z,33.45
2019-02-15T10:10:38.241Z,33.81
2019-02-15T10:13:05.635Z,34.17
2019-02-15T10:15:33.035Z,33.82
2019-02-15T10:18:00.451Z,33.31
2019-02-15T10:20:28.071Z,32.83
2019-02-15T10:22:55.468Z,32.45
2019-02-15T10:25:22.898Z,32.19
2019-02-15T10:27:50.301Z,31.82
2019-02-15T10:30:17.743Z,31.63
2019-02-15T10:32:45.159Z,31.40
2019-02-15T10:35:12.660Z,31.09
2019-02-15T10:37:40.125Z,31.04
2019-02-15T10:40:07.543Z,31.01
2019-02-15T10:42:34.976Z,31.17
2019-02-15T10:45:02.540Z,31.98
2019-02-15T10:47:29.946Z,32.11
2019-02-15T10:49:57.377Z,32.27
2019-02-15T10:52:24.823Z,32.63
2019-02-15T10:54:52.278Z,32.87
2019-02-15T10:57:19.749Z,33.11
2019-02-15T10:59:47.183Z,33.01
2019-02-15T11:02:14.587Z,32.69
2019-02-15T11:04:42.011Z,32.56
2019-02-15T11:07:09.423Z,32.21
2019-02-15T11:09:36.379Z,32.13
2019-02-15T11:12:03.306Z,32.05
2019-02-15T11:14:30.264Z,31.65
2019-02-15T11:16:57.261Z,31.00
2019-02-15T11:19:24.213Z,30.37
2019-02-15T11:21:51.155Z,29.61
2019-02-15T11:24:18.095Z,29.19
2019-02-15T11:26:45.054Z,28.84
2019-02-15T11:29:11.997Z,28.70
2019-02-15T11:31:39.782Z,28.11
2019-02-15T11:34:06.750Z,27.41
2019-02-15T11:36:33.755Z,27.54
2019-02-15T11:39:01.107Z,26.61
2019-02-15T11:41:28.047Z,25.82
2019-02-15T11:43:55.056Z,24.96
2019-02-15T11:46:22.046Z,24.79
2019-02-15T11:48:49.148Z,24.39
2019-02-15T11:51:16.130Z,24.25
2019-02-15T11:53:43.072Z,24.13
2019-02-15T11:56:10.010Z,24.13
2019-02-15T11:58:37.689Z,23.50
2019-02-15T12:01:05.099Z,22.97
2019-02-15T12:03:32.519Z,22.82
2019-02-15T12:05:59.964Z,22.89
2019-02-15T12:08:27.529Z,22.80
2019-02-15T12:10:54.951Z,22.53
2019-02-15T12:13:22.899Z,22.52
2019-02-15T12:15:50.359Z,22.85
2019-02-15T12:18:17.772Z,22.22
2019-02-15T12:20:45.188Z,21.62
2019-02-15T12:23:12.607Z,21.33
2019-02-15T12:25:40.058Z,20.90
2019-02-15T12:28:07.466Z,20.38
2019-02-15T12:30:34.935Z,20.54
2019-02-15T12:33:02.381Z,20.93
2019-02-15T12:35:29.958Z,21.11
2019-02-15T12:37:57.348Z,20.87
2019-02-15T12:40:24.746Z,20.33
2019-02-15T12:42:52.164Z,20.13
2019-02-15T12:45:19.683Z,20.27
2019-02-15T12:47:47.208Z,20.00
2019-02-15T12:50:15.335Z,20.38
2019-02-15T12:52:42.743Z,20.62
2019-02-15T12:55:10.642Z,20.36
2019-02-15T12:57:38.107Z,20.44
2019-02-15T13:00:06.340Z,20.47
2019-02-15T13:02:33.836Z,20.23
2019-02-15T13:05:01.249Z,19.84
2019-02-15T13:07:28.952Z,19.09
2019-02-15T13:09:57.119Z,18.39
2019-02-15T13:12:24.524Z,17.89
2019-02-15T13:14:51.947Z,17.61
2019-02-15T13:17:24.784Z,17.29
2019-02-15T13:19:46.834Z,17.20
2019-02-15T13:22:14.442Z,16.96
2019-02-15T13:24:43.242Z,17.00
2019-02-15T13:27:09.335Z,17.01
2019-02-15T13:29:36.836Z,16.62
2019-02-15T13:32:04.257Z,16.16
2019-02-15T13:34:31.698Z,16.16
2019-02-15T13:36:59.199Z,16.25
2019-02-15T13:39:27.254Z,16.45
2019-02-15T13:41:54.684Z,16.36
2019-02-15T13:44:22.083Z,15.86
2019-02-15T13:46:49.531Z,15.73
2019-02-15T13:49:16.958Z,15.72
2019-02-15T13:51:45.406Z,15.29
2019-02-15T13:54:12.810Z,15.41
2019-02-15T13:56:40.672Z,15.56
2019-02-15T13:59:07.806Z,15.79
2019-02-15T14:01:35.199Z,15.75
2019-02-15T14:04:02.647Z,15.79
2019-02-15T14:06:30.067Z,15.57
2019-02-15T14:08:57.539Z,15.26
2019-02-15T14:11:25.927Z,14.91
2019-02-15T14:13:54.314Z,14.57
2019-02-15T14:16:21.751Z,14.25
2019-02-15T14:18:49.219Z,13.84
2019-02-15T14:21:16.617Z,13.69
2019-02-15T14:23:44.089Z,13.60
2019-02-15T14:26:11.503Z,13.53
2019-02-15T14:28:38.916Z,13.48
2019-02-15T14:31:06.910Z,13.63
2019-02-15T14:33:34.309Z,13.41
2019-02-15T14:36:01.731Z,13.40
2019-02-15T14:38:29.183Z,13.31
2019-02-15T14:40:56.600Z,13.20
2019-02-15T14:43:24.055Z,12.89
2019-02-15T14:45:51.954Z,12.80
2019-02-15T14:48:20.140Z,12.73
2019-02-15T14:50:46.816Z,12.45
2019-02-15T14:53:14.242Z,12.23
2019-02-15T14:55:41.646Z,12.12
2019-02-15T14:58:09.257Z,11.96
2019-02-15T15:00:36.731Z,11.86
2019-02-15T15:03:04.083Z,11.49
2019-02-15T15:05:31.559Z,11.53
2019-02-15T15:07:58.975Z,11.47
2019-02-15T15:10:26.735Z,11.26
2019-02-15T15:12:54.664Z,11.32
2019-02-15T15:15:22.226Z,11.53
2019-02-15T15:17:50.137Z,11.36
2019-02-15T15:20:17.130Z,11.00
2019-02-15T15:22:44.553Z,10.77
2019-02-15T15:25:12.079Z,10.83
2019-02-15T15:27:39.655Z,10.81
2019-02-15T15:30:07.742Z,10.82
2019-02-15T15:32:35.182Z,10.66
2019-02-15T15:35:02.567Z,10.60
2019-02-15T15:37:30.014Z,10.69
2019-02-15T15:39:57.467Z,11.27
2019-02-15T15:42:24.906Z,11.51
2019-02-15T15:44:52.309Z,11.62
2019-02-15T15:47:19.780Z,12.04
2019-02-15T15:49:47.197Z,12.30
2019-02-15T15:52:14.660Z,12.43
2019-02-15T15:54:42.216Z,12.50
2019-02-15T15:57:09.739Z,12.54
2019-02-15T15:59:37.180Z,12.44
2019-02-15T16:02:04.697Z,12.89
2019-02-15T16:04:32.124Z,14.05
2019-02-15T16:06:59.531Z,14.60
2019-02-15T16:09:27.029Z,14.97
2019-02-15T16:11:54.535Z,15.42
2019-02-15T16:14:21.977Z,15.83
2019-02-15T16:16:49.415Z,16.08
2019-02-15T16:19:16.378Z,16.77
2019-02-15T16:21:44.485Z,20.19
2019-02-15T16:24:12.836Z,22.38
2019-02-15T16:26:38.662Z,22.25
2019-02-15T16:29:06.207Z,25.46
2019-02-15T16:31:33.661Z,28.22
2019-02-15T16:34:01.365Z,30.07
2019-02-15T16:36:28.764Z,31.51
2019-02-15T16:38:57.057Z,32.75
2019-02-15T16:41:24.485Z,33.82
2019-02-15T16:43:51.892Z,34.91
2019-02-15T16:46:19.295Z,35.86
2019-02-15T16:48:47.501Z,36.32
2019-02-15T16:51:14.970Z,36.72
2019-02-15T16:53:42.616Z,36.96
2019-02-15T16:56:10.043Z,37.77
2019-02-15T16:58:37.439Z,38.06
2019-02-15T17:01:04.858Z,38.44
2019-02-15T17:03:32.273Z,38.71
2019-02-15T17:05:59.708Z,39.32
2019-02-15T17:08:27.223Z,39.58
2019-02-15T17:10:54.642Z,39.99
2019-02-15T17:13:22.046Z,40.25
2019-02-15T17:15:49.454Z,40.50
2019-02-15T17:18:16.887Z,40.81
2019-02-15T17:20:44.309Z,41.38
2019-02-15T17:23:11.899Z,41.55
2019-02-15T17:25:39.302Z,41.53
2019-02-15T17:28:06.702Z,41.58
2019-02-15T17:30:34.138Z,41.60
2019-02-15T17:33:01.559Z,41.71
2019-02-15T17:35:28.972Z,42.37
2019-02-15T17:37:56.370Z,42.20
2019-02-15T17:40:23.773Z,42.56
2019-02-15T17:42:51.241Z,42.70
2019-02-15T17:45:18.803Z,42.75
2019-02-15T17:47:46.267Z,42.91
2019-02-15T17:50:13.671Z,43.08
2019-02-15T17:52:41.189Z,43.23
2019-02-15T17:55:09.415Z,43.52
2019-02-15T17:57:36.862Z,43.65
2019-02-15T18:00:04.259Z,44.26
2019-02-15T18:02:31.672Z,44.74
2019-02-15T18:04:59.292Z,45.20
2019-02-15T18:07:26.748Z,45.83
2019-02-15T18:09:54.155Z,46.25
2019-02-15T18:12:21.574Z,46.53
2019-02-15T18:14:48.973Z,46.92
2019-02-15T18:17:16.512Z,47.22
2019-02-15T18:19:47.242Z,47.51
2019-02-15T18:22:11.377Z,47.68
2019-02-15T18:24:38.784Z,47.89
2019-02-15T18:27:06.216Z,48.12
2019-02-15T18:29:33.655Z,48.43
2019-02-15T18:32:02.145Z,48.56
2019-02-15T18:34:29.587Z,48.86
2019-02-15T18:36:56.979Z,49.29
2019-02-15T18:39:24.404Z,49.87
2019-02-15T18:41:51.831Z,50.41
2019-02-15T18:44:19.259Z,50.75
2019-02-15T18:46:46.659Z,51.05
2019-02-15T18:49:19.403Z,51.25
2019-02-15T18:51:41.798Z,51.55
2019-02-15T18:54:09.247Z,52.08
2019-02-15T18:56:36.786Z,52.67
2019-02-15T18:59:04.350Z,53.40
2019-02-15T19:01:31.837Z,54.05
2019-02-15T19:03:59.243Z,54.58
2019-02-15T19:06:26.680Z,55.33
2019-02-15T19:08:54.137Z,55.90
2019-02-15T19:11:21.608Z,56.47
2019-02-15T19:13:49.031Z,57.08
2019-02-15T19:16:16.509Z,57.66
2019-02-15T19:18:43.944Z,58.33
2019-02-15T19:21:11.483Z,58.71
2019-02-15T19:23:38.887Z,59.21
2019-02-15T19:26:06.374Z,59.46
2019-02-15T19:28:34.772Z,59.79
2019-02-15T19:31:02.190Z,60.12
2019-02-15T19:33:29.625Z,60.53
2019-02-15T19:35:57.026Z,60.94
2019-02-15T19:38:24.536Z,61.16
2019-02-15T19:40:52.086Z,61.54
2019-02-15T19:43:19.504Z,62.22
2019-02-15T19:45:46.930Z,62.91
2019-02-15T19:48:14.369Z,63.22
2019-02-15T19:50:41.785Z,63.31
2019-02-15T19:53:09.280Z,63.79
2019-02-15T19:55:36.722Z,64.12
2019-02-15T19:58:04.269Z,64.47
2019-02-15T20:00:31.715Z,64.60
2019-02-15T20:02:59.210Z,64.87
2019-02-15T20:05:26.639Z,65.18
2019-02-15T20:07:54.251Z,65.42
2019-02-15T20:10:21.652Z,65.52
2019-02-15T20:12:49.122Z,65.60
2019-02-15T20:15:16.511Z,65.65
2019-02-15T20:17:44.013Z,65.62
2019-02-15T20:20:12.285Z,65.70
2019-02-15T20:22:39.760Z,65.53
2019-02-15T20:25:07.275Z,65.40
2019-02-15T20:27:34.892Z,65.54
2019-02-15T20:30:03.445Z,65.75
2019-02-15T20:32:29.794Z,65.80
2019-02-15T20:34:57.232Z,65.73
2019-02-15T20:37:24.614Z,65.52
2019-02-15T20:39:52.122Z,65.42
2019-02-15T20:42:19.591Z,65.37
2019-02-15T20:44:47.021Z,65.25
2019-02-15T20:47:15.162Z,65.28
2019-02-15T20:49:42.931Z,65.55
2019-02-15T20:52:10.335Z,65.92
2019-02-15T20:54:38.690Z,66.18
2019-02-15T20:57:06.127Z,66.65
2019-02-15T20:59:33.573Z,66.95
2019-02-15T21:02:01.023Z,67.18
2019-02-15T21:04:28.463Z,67.34
2019-02-15T21:06:55.889Z,67.14
2019-02-15T21:09:23.291Z,67.28
2019-02-15T21:11:50.748Z,67.40
2019-02-15T21:14:18.224Z,67.27
2019-02-15T21:16:45.679Z,67.10
2019-02-15T21:19:13.114Z,66.27
2019-02-15T21:21:40.646Z,65.73
2019-02-15T21:24:08.074Z,65.76
2019-02-15T21:26:35.514Z,66.05
2019-02-15T21:29:02.967Z,66.02
2019-02-15T21:31:30.360Z,65.78
2019-02-15T21:33:57.793Z,65.59
2019-02-15T21:36:25.194Z,65.81
2019-02-15T21:38:53.427Z,66.01
2019-02-15T21:41:20.836Z,66.03
2019-02-15T21:43:48.234Z,65.99
2019-02-15T21:46:15.658Z,65.48
2019-02-15T21:48:43.051Z,65.23
2019-02-15T21:51:10.523Z,65.28
2019-02-15T21:53:37.961Z,65.53
2019-02-15T21:56:05.472Z,65.68
2019-02-15T21:58:32.878Z,65.58
2019-02-15T22:01:01.476Z,65.59
2019-02-15T22:03:27.800Z,65.39
2019-02-15T22:05:55.220Z,65.38
2019-02-15T22:08:22.705Z,65.29
2019-02-15T22:10:50.144Z,65.07
2019-02-15T22:13:17.582Z,64.57
2019-02-15T22:15:45.260Z,64.63
2019-02-15T22:18:12.678Z,64.65
2019-02-15T22:20:40.177Z,64.27
2019-02-15T22:23:07.599Z,64.17
2019-02-15T22:25:34.998Z,63.41
2019-02-15T22:28:02.411Z,62.76
2019-02-15T22:30:29.804Z,63.42
2019-02-15T22:32:57.289Z,63.98
2019-02-15T22:35:24.714Z,63.50
2019-02-15T22:37:52.091Z,62.94
2019-02-15T22:40:28.689Z,62.37
2019-02-15T22:42:56.115Z,62.40
2019-02-15T22:45:23.529Z,62.20
2019-02-15T22:47:51.711Z,62.95
2019-02-15T22:50:19.283Z,62.93
2019-02-15T22:52:46.835Z,62.61
2019-02-15T22:55:15.003Z,62.51
2019-02-15T22:57:42.408Z,62.61
2019-02-15T23:00:16.323Z,62.63
2019-02-15T23:02:43.893Z,62.82
2019-02-15T23:05:11.399Z,63.11
2019-02-15T23:07:39.863Z,63.42
2019-02-15T23:10:07.283Z,63.48
2019-02-15T23:12:34.684Z,63.75
2019-02-15T23:15:02.101Z,63.68
2019-02-15T23:17:29.499Z,63.67
2019-02-15T23:19:56.895Z,63.88
2019-02-15T23:22:24.418Z,64.33
2019-02-15T23:24:51.877Z,64.28
2019-02-15T23:27:19.310Z,64.50
2019-02-15T23:29:47.043Z,64.48
2019-02-15T23:32:14.244Z,64.45
2019-02-15T23:34:41.660Z,64.30
2019-02-15T23:37:09.062Z,64.51
2019-02-15T23:39:36.459Z,64.68
2019-02-15T23:42:03.867Z,64.81
2019-02-15T23:44:31.294Z,64.99
2019-02-15T23:46:58.750Z,65.21
2019-02-15T23:49:26.166Z,65.27
2019-02-15T23:51:53.706Z,65.36
2019-02-15T23:54:21.105Z,65.17
2019-02-15T23:56:48.503Z,65.00
2019-02-15T23:59:15.935Z,64.89
